This is the latest recevied weather packets stored in our database for station/object CT7BNL-13. If no packets are shown the sender has not sent any weather packets the latest 10 day(s).
| Time | Temp. | Humidity | Pressure | Rain* | Wind** | Luminosity | Snow |
|---|---|---|---|---|---|---|---|
| 1788082465 | 68° F | 82% | 770.6 mmHg | 0 in | - | 189 W/m² | - |
| 1788081566 | 69° F | 81% | 770.5 mmHg | 0 in | - | 191 W/m² | - |
| 1788080665 | 69° F | 80% | 770.5 mmHg | 0 in | - | 196 W/m² | - |
| 1788079764 | 70° F | 78% | 770 mmHg | 0 in | - | 277 W/m² | - |
| 1788078865 | 69° F | 80% | 770.4 mmHg | 0 in | - | 247 W/m² | - |
| 1788077965 | 68° F | 82% | 770.2 mmHg | 0 in | - | 203 W/m² | - |
| 1788077066 | 66° F | 86% | 770.2 mmHg | 0 in | - | 188 W/m² | - |
| 1788076165 | 65° F | 90% | 770 mmHg | 0 in | - | 142 W/m² | - |
| 1788075264 | 64° F | 91% | 770.1 mmHg | 0 in | - | 115 W/m² | - |
| 1788074365 | 64° F | 93% | 770.2 mmHg | 0 in | - | 98 W/m² | - |
| 1788073465 | 63° F | 93% | 769.8 mmHg | 0 in | - | 58 W/m² | - |
| 1788072564 | 63° F | 94% | 769.9 mmHg | 0 in | - | 46 W/m² | - |
| 1788071665 | 62° F | 96% | 769.7 mmHg | 0 in | - | 29 W/m² | - |
| 1788070764 | 62° F | 96% | 769.7 mmHg | 0 in | - | 14 W/m² | - |
| 1788069864 | 62° F | 96% | 769.8 mmHg | 0 in | - | 5 W/m² | - |
| 1788068965 | 62° F | 96% | 769.6 mmHg | 0 in | - | 0 W/m² | - |
| 1788068064 | 62° F | 96% | 769.5 mmHg | 0 in | - | 0 W/m² | - |
| 1788067166 | 61° F | 96% | 769.4 mmHg | 0 in | - | 0 W/m² | - |
| 1788066265 | 61° F | 96% | 769.3 mmHg | 0 in | - | 0 W/m² | - |
| 1788065365 | 61° F | 96% | 769.5 mmHg | 0 in | - | 0 W/m² | - |
| 1788064465 | 61° F | 96% | 769.4 mmHg | 0 in | - | 0 W/m² | - |
| 1788063565 | 62° F | 96% | 769.3 mmHg | 0 in | - | 0 W/m² | - |
| 1788062664 | 61° F | 96% | 769.3 mmHg | 0 in | - | 0 W/m² | - |
| 1788061765 | 61° F | 96% | 769.5 mmHg | 0 in | - | 0 W/m² | - |
| 1788060864 | 61° F | 96% | 769.6 mmHg | 0 in | - | 0 W/m² | - |
* Rain latest hour (hover to see other rain measurements)
** Current wind speed in m/s (hover to see current wind gust speed)